createdAt,value
2022-10-20T00:00:15.461Z,28.10
2022-10-20T00:02:46.583Z,32.20
2022-10-20T00:04:56.829Z,30.00
2022-10-20T00:07:06.827Z,33.70
2022-10-20T00:09:16.908Z,32.00
2022-10-20T00:11:28.038Z,24.20
2022-10-20T00:13:39.938Z,22.10
2022-10-20T00:15:54.788Z,34.10
2022-10-20T00:18:04.830Z,25.80
2022-10-20T00:20:16.022Z,24.20
2022-10-20T00:22:26.078Z,16.20
2022-10-20T00:24:36.380Z,15.40
2022-10-20T00:26:46.457Z,12.80
2022-10-20T00:28:58.831Z,10.70
2022-10-20T00:31:09.602Z,11.10
2022-10-20T00:33:19.547Z,8.20
2022-10-20T00:35:29.789Z,8.60
2022-10-20T00:37:39.802Z,8.00
2022-10-20T00:39:49.692Z,9.10
2022-10-20T00:41:59.775Z,7.20
2022-10-20T00:44:38.666Z,6.90
2022-10-20T00:46:49.591Z,7.20
2022-10-20T00:49:03.501Z,6.60
2022-10-20T00:51:15.017Z,7.60
2022-10-20T00:53:28.866Z,6.00
2022-10-20T00:55:42.653Z,5.70
2022-10-20T00:57:55.750Z,6.20
2022-10-20T01:00:06.885Z,5.20
2022-10-20T01:02:17.779Z,5.90
2022-10-20T01:04:29.742Z,5.60
2022-10-20T01:06:40.349Z,5.60
2022-10-20T01:08:51.934Z,5.50
2022-10-20T01:11:13.742Z,6.10
2022-10-20T01:13:31.756Z,5.60
2022-10-20T01:15:50.353Z,6.00
2022-10-20T01:18:11.667Z,5.10
2022-10-20T01:20:47.419Z,5.20
2022-10-20T01:23:27.294Z,5.70
2022-10-20T01:25:52.668Z,5.30
2022-10-20T01:28:14.086Z,5.40
2022-10-20T01:30:25.833Z,5.00
2022-10-20T01:32:50.418Z,5.20
2022-10-20T01:35:06.795Z,4.50
2022-10-20T01:37:34.180Z,5.90
2022-10-20T01:39:56.100Z,5.20
2022-10-20T01:42:09.834Z,5.10
2022-10-20T01:44:23.076Z,4.40
2022-10-20T01:46:34.955Z,5.40
2022-10-20T01:48:45.882Z,5.10
2022-10-20T01:50:56.651Z,4.70
2022-10-20T01:53:07.617Z,4.60
2022-10-20T01:55:20.470Z,4.70
2022-10-20T01:57:50.683Z,4.60
2022-10-20T02:00:08.737Z,4.70
2022-10-20T02:02:35.457Z,5.30
2022-10-20T02:05:02.321Z,5.00
2022-10-20T02:07:22.232Z,6.50
2022-10-20T02:09:36.793Z,8.40
2022-10-20T02:11:55.148Z,5.00
2022-10-20T02:14:07.394Z,4.80
2022-10-20T02:16:23.435Z,4.80
2022-10-20T02:18:38.246Z,4.60
2022-10-20T02:20:50.895Z,4.20
2022-10-20T02:23:03.332Z,5.20
2022-10-20T02:27:29.093Z,4.10
2022-10-20T02:29:44.326Z,5.30
2022-10-20T02:31:54.393Z,7.00
2022-10-20T02:34:05.444Z,8.70
2022-10-20T02:36:19.012Z,6.80
2022-10-20T02:38:29.017Z,6.40
2022-10-20T02:40:39.092Z,4.80
2022-10-20T02:42:49.161Z,5.10
2022-10-20T02:44:59.321Z,4.80
2022-10-20T02:47:09.287Z,5.10
2022-10-20T02:49:19.720Z,5.20
2022-10-20T02:51:29.897Z,5.50
2022-10-20T02:53:40.083Z,6.20
2022-10-20T02:55:50.049Z,7.10
2022-10-20T02:58:00.374Z,6.50
2022-10-20T03:00:12.863Z,5.40
2022-10-20T03:04:31.079Z,8.40
2022-10-20T03:06:41.498Z,12.60
2022-10-20T03:08:51.778Z,6.10
2022-10-20T03:11:02.329Z,12.10
2022-10-20T03:13:12.526Z,12.50
2022-10-20T03:15:22.889Z,13.00
2022-10-20T03:17:33.194Z,19.30
2022-10-20T03:19:43.399Z,19.20
2022-10-20T03:21:53.550Z,17.40
2022-10-20T03:24:04.308Z,19.10
2022-10-20T03:26:15.441Z,19.20
2022-10-20T03:28:25.433Z,18.00
2022-10-20T03:30:35.625Z,16.90
2022-10-20T03:32:46.725Z,14.70
2022-10-20T03:34:56.882Z,14.90
2022-10-20T03:37:07.731Z,17.00
2022-10-20T03:39:17.825Z,23.50
2022-10-20T03:41:28.137Z,18.00
2022-10-20T03:43:38.279Z,19.70
2022-10-20T03:45:48.625Z,16.00
2022-10-20T03:47:58.843Z,14.50
2022-10-20T03:50:11.348Z,17.30
2022-10-20T03:52:21.558Z,16.10
2022-10-20T03:54:31.477Z,9.20
2022-10-20T03:56:41.652Z,7.60
2022-10-20T03:58:52.072Z,10.70
2022-10-20T04:01:02.307Z,11.60
2022-10-20T04:03:12.308Z,9.60
2022-10-20T04:05:23.757Z,9.00
2022-10-20T04:07:34.969Z,9.20
2022-10-20T04:09:50.439Z,6.50
2022-10-20T04:12:01.192Z,8.60
2022-10-20T04:14:11.920Z,7.30
2022-10-20T04:16:22.629Z,6.50
2022-10-20T04:18:32.689Z,6.60
2022-10-20T04:20:44.502Z,6.60
2022-10-20T04:22:55.018Z,8.50
2022-10-20T04:25:05.210Z,8.90
2022-10-20T04:27:15.307Z,9.00
2022-10-20T04:29:26.207Z,9.80
2022-10-20T04:31:36.281Z,9.60
2022-10-20T04:33:46.615Z,20.60
2022-10-20T04:36:03.099Z,18.20
2022-10-20T04:38:13.177Z,21.10
2022-10-20T04:40:23.339Z,15.70
2022-10-20T04:42:33.989Z,10.60
2022-10-20T04:45:00.476Z,8.60
2022-10-20T04:47:11.532Z,8.60
2022-10-20T04:49:21.451Z,8.30
2022-10-20T04:51:31.696Z,6.90
2022-10-20T04:53:42.385Z,7.30
2022-10-20T04:56:00.222Z,6.90
2022-10-20T04:58:10.277Z,6.50
2022-10-20T05:00:21.038Z,6.40
2022-10-20T05:02:32.131Z,6.00
2022-10-20T05:04:42.213Z,6.40
2022-10-20T05:06:52.789Z,5.40
2022-10-20T05:09:04.428Z,6.90
2022-10-20T05:11:15.621Z,6.40
2022-10-20T05:13:25.496Z,7.20
2022-10-20T05:15:35.726Z,7.50
2022-10-20T05:17:45.823Z,6.80
2022-10-20T05:19:55.851Z,8.20
2022-10-20T05:22:06.002Z,8.80
2022-10-20T05:24:21.343Z,7.60
2022-10-20T05:26:37.697Z,8.10
2022-10-20T05:28:50.171Z,8.50
2022-10-20T05:31:02.824Z,8.30
2022-10-20T05:33:13.239Z,8.60
2022-10-20T05:35:23.496Z,9.30
2022-10-20T05:37:33.669Z,9.30
2022-10-20T05:39:43.929Z,9.00
2022-10-20T05:41:54.145Z,9.40
2022-10-20T05:44:06.378Z,8.00
2022-10-20T05:46:16.295Z,8.70
2022-10-20T05:48:26.646Z,8.50
2022-10-20T05:50:36.850Z,8.90
2022-10-20T05:52:46.872Z,9.70
2022-10-20T05:54:57.037Z,9.10
2022-10-20T05:57:07.226Z,9.30
2022-10-20T05:59:17.951Z,8.00
2022-10-20T06:01:39.497Z,8.90
2022-10-20T06:03:56.575Z,6.70
2022-10-20T06:06:07.141Z,9.20
2022-10-20T06:08:17.138Z,8.00
2022-10-20T06:10:27.361Z,8.00
2022-10-20T06:12:39.689Z,8.00
2022-10-20T06:14:49.855Z,8.10
2022-10-20T06:16:59.945Z,8.50
2022-10-20T06:19:10.106Z,8.00
2022-10-20T06:21:22.256Z,7.90
2022-10-20T06:23:33.057Z,8.30
2022-10-20T06:25:43.989Z,6.80
2022-10-20T06:27:53.874Z,8.70
2022-10-20T06:30:04.041Z,9.20
2022-10-20T06:34:25.554Z,30.10
2022-10-20T06:36:37.401Z,34.90
2022-10-20T06:38:47.733Z,30.20
2022-10-20T06:40:57.849Z,26.50
2022-10-20T06:43:07.811Z,24.90
2022-10-20T06:45:18.734Z,17.80
2022-10-20T06:47:28.983Z,11.90
2022-10-20T06:49:39.077Z,12.40
2022-10-20T06:51:49.043Z,9.30
2022-10-20T06:53:59.176Z,8.00
2022-10-20T06:56:12.428Z,7.30
2022-10-20T06:58:22.444Z,7.00
2022-10-20T07:00:32.324Z,6.90
2022-10-20T07:02:44.074Z,6.40
2022-10-20T07:04:55.572Z,6.90
2022-10-20T07:07:05.600Z,8.00
2022-10-20T07:09:18.270Z,7.70
2022-10-20T07:11:29.427Z,7.00
2022-10-20T07:13:40.856Z,8.80
2022-10-20T07:15:50.925Z,16.30
2022-10-20T07:18:00.829Z,23.10
2022-10-20T07:20:12.492Z,24.80
2022-10-20T07:22:22.782Z,26.50
2022-10-20T07:24:33.006Z,24.00
2022-10-20T07:26:44.302Z,32.30
2022-10-20T07:28:56.054Z,45.70
2022-10-20T07:31:10.505Z,89.00
2022-10-20T07:33:20.503Z,68.50
2022-10-20T07:35:31.836Z,67.20
2022-10-20T07:37:41.886Z,62.10
2022-10-20T07:39:51.812Z,69.80
2022-10-20T07:42:01.910Z,70.60
2022-10-20T07:44:11.986Z,64.50
2022-10-20T07:46:23.402Z,51.30
2022-10-20T07:48:34.194Z,36.80
2022-10-20T07:50:44.310Z,34.50
2022-10-20T07:52:56.605Z,26.40
2022-10-20T07:55:23.983Z,26.10
2022-10-20T07:57:37.405Z,25.90
2022-10-20T07:59:47.659Z,32.30
2022-10-20T08:01:59.576Z,21.00
2022-10-20T08:04:10.765Z,12.80
2022-10-20T08:06:20.674Z,12.40
2022-10-20T08:08:31.030Z,9.30
2022-10-20T08:10:42.554Z,10.00
2022-10-20T08:12:53.169Z,8.30
2022-10-20T08:15:03.264Z,14.70
2022-10-20T08:17:13.355Z,18.30
2022-10-20T08:21:48.897Z,9.20
2022-10-20T08:23:58.912Z,7.50
2022-10-20T08:26:11.380Z,6.50
2022-10-20T08:28:23.486Z,7.20
2022-10-20T08:30:36.633Z,7.30
2022-10-20T08:32:46.540Z,8.20
2022-10-20T08:34:56.628Z,8.00
2022-10-20T08:37:06.688Z,8.50
2022-10-20T08:39:16.763Z,8.70
2022-10-20T08:41:38.736Z,7.70
2022-10-20T08:44:00.766Z,8.30
2022-10-20T08:46:13.693Z,8.90
2022-10-20T08:48:27.661Z,8.10
2022-10-20T08:50:39.354Z,6.80
2022-10-20T08:52:53.646Z,6.50
2022-10-20T08:55:05.897Z,6.20
2022-10-20T08:57:26.387Z,6.10
2022-10-20T08:59:41.276Z,4.60
2022-10-20T09:01:51.480Z,5.30
2022-10-20T09:04:18.171Z,5.10
2022-10-20T09:06:28.316Z,5.20
2022-10-20T09:08:41.247Z,5.10
2022-10-20T09:10:54.136Z,5.00
2022-10-20T09:13:05.926Z,6.10
2022-10-20T09:15:17.991Z,5.00
2022-10-20T09:17:28.143Z,4.80
2022-10-20T09:19:38.503Z,4.90
2022-10-20T09:21:52.395Z,5.00
2022-10-20T09:24:07.218Z,4.80
2022-10-20T09:26:32.133Z,5.30
2022-10-20T09:29:11.975Z,4.10
2022-10-20T09:31:36.951Z,4.00
2022-10-20T09:33:47.836Z,3.10
2022-10-20T09:36:03.029Z,6.20
2022-10-20T09:38:24.416Z,5.40
2022-10-20T09:40:34.765Z,5.30
2022-10-20T09:42:50.513Z,5.40
2022-10-20T09:45:04.003Z,5.60
2022-10-20T09:47:17.297Z,5.00
2022-10-20T09:49:33.381Z,5.30
2022-10-20T09:54:03.799Z,4.40
2022-10-20T09:56:14.507Z,6.00
2022-10-20T09:58:31.253Z,5.10
2022-10-20T10:00:46.276Z,4.20
2022-10-20T10:03:14.907Z,19.80
2022-10-20T10:05:34.830Z,39.90
2022-10-20T10:07:44.979Z,34.40
2022-10-20T10:10:05.483Z,35.90
2022-10-20T10:12:21.857Z,28.60
2022-10-20T10:14:33.680Z,22.80
2022-10-20T10:19:03.022Z,8.90
2022-10-20T10:21:17.731Z,10.00
2022-10-20T10:23:30.257Z,11.50
2022-10-20T10:25:40.286Z,12.90
2022-10-20T10:28:03.819Z,12.60
2022-10-20T10:30:32.819Z,11.40
2022-10-20T10:32:48.235Z,12.50
2022-10-20T10:35:19.593Z,11.90
2022-10-20T10:37:33.819Z,11.30
2022-10-20T10:39:46.058Z,6.00
2022-10-20T10:42:09.937Z,6.80
2022-10-20T10:44:33.393Z,6.50
2022-10-20T10:46:57.544Z,7.90
2022-10-20T10:49:36.610Z,8.80
2022-10-20T10:51:58.394Z,8.30
2022-10-20T10:54:21.566Z,8.10
2022-10-20T10:56:39.518Z,7.10
2022-10-20T10:58:59.188Z,8.10
2022-10-20T11:01:17.419Z,6.50
2022-10-20T11:03:47.116Z,32.10
2022-10-20T11:06:18.561Z,24.30
2022-10-20T11:08:41.301Z,33.80
2022-10-20T11:13:14.819Z,23.40
2022-10-20T11:15:36.637Z,9.80
2022-10-20T11:17:57.685Z,52.80
2022-10-20T11:20:22.037Z,59.90
2022-10-20T11:22:46.538Z,68.50
2022-10-20T11:25:05.370Z,54.30
2022-10-20T11:27:19.047Z,55.10
2022-10-20T11:29:34.072Z,55.00
2022-10-20T11:31:48.545Z,56.20
2022-10-20T11:34:07.328Z,45.90
2022-10-20T11:36:21.239Z,43.40
2022-10-20T11:38:37.180Z,27.80
2022-10-20T11:40:51.287Z,24.10
2022-10-20T11:43:10.362Z,21.20
2022-10-20T11:45:44.671Z,22.70
2022-10-20T11:48:03.383Z,17.90
2022-10-20T11:50:16.294Z,20.40
2022-10-20T11:53:05.848Z,22.10
2022-10-20T11:55:44.951Z,12.90
2022-10-20T11:58:31.780Z,15.40
2022-10-20T12:00:58.937Z,13.90
2022-10-20T12:03:38.794Z,17.00
2022-10-20T12:06:10.065Z,17.60
2022-10-20T12:08:53.735Z,17.80
2022-10-20T12:11:11.481Z,16.10
2022-10-20T12:13:35.435Z,16.10
2022-10-20T12:15:51.533Z,16.40
2022-10-20T12:18:06.642Z,16.20
2022-10-20T12:20:53.142Z,16.10
2022-10-20T12:23:03.470Z,16.80
2022-10-20T12:25:40.943Z,17.40
2022-10-20T12:28:11.004Z,14.60
2022-10-20T12:30:55.202Z,8.90
2022-10-20T12:33:38.615Z,11.20
2022-10-20T12:36:02.461Z,11.20
2022-10-20T12:38:21.615Z,10.40
2022-10-20T12:40:36.415Z,9.30
2022-10-20T12:42:54.133Z,10.90
2022-10-20T12:45:08.821Z,11.70
2022-10-20T12:47:25.848Z,9.70
2022-10-20T12:49:38.654Z,11.50
2022-10-20T12:51:54.738Z,12.20
2022-10-20T12:54:10.923Z,14.70
2022-10-20T12:56:24.565Z,29.80
2022-10-20T12:58:37.062Z,44.10
2022-10-20T13:01:05.929Z,57.50
2022-10-20T13:03:39.696Z,52.90
2022-10-20T13:05:53.970Z,54.00
2022-10-20T13:08:32.668Z,23.70
2022-10-20T13:10:43.047Z,25.60
2022-10-20T13:12:53.234Z,19.30
2022-10-20T13:15:13.583Z,15.70
2022-10-20T13:17:33.055Z,15.50
2022-10-20T13:19:48.941Z,14.00
2022-10-20T13:22:00.499Z,14.60
2022-10-20T13:24:19.351Z,50.40
2022-10-20T13:26:33.231Z,45.20
2022-10-20T13:28:50.132Z,35.80
2022-10-20T13:31:20.226Z,31.20
2022-10-20T13:33:58.868Z,36.00
2022-10-20T13:36:14.814Z,31.70
2022-10-20T13:38:32.880Z,34.40
2022-10-20T13:40:53.948Z,34.10
2022-10-20T13:43:17.072Z,32.50
2022-10-20T13:45:37.700Z,30.70
2022-10-20T13:47:58.028Z,23.10
2022-10-20T13:50:12.947Z,23.20
2022-10-20T13:52:23.474Z,21.70
2022-10-20T13:54:39.167Z,15.00
2022-10-20T13:56:51.964Z,13.30
2022-10-20T13:59:06.316Z,15.00
2022-10-20T14:01:24.766Z,15.20
2022-10-20T14:03:42.683Z,11.80
2022-10-20T14:05:55.091Z,13.40
2022-10-20T14:10:28.394Z,11.20
2022-10-20T14:12:38.891Z,8.40
2022-10-20T14:14:49.618Z,10.80
2022-10-20T14:17:02.906Z,11.10
2022-10-20T14:19:16.497Z,12.40
2022-10-20T14:21:29.322Z,10.60
2022-10-20T14:23:43.527Z,11.00
2022-10-20T14:25:56.409Z,11.60
2022-10-20T14:28:07.594Z,10.10
2022-10-20T14:30:21.410Z,9.60
2022-10-20T14:32:33.176Z,9.50
2022-10-20T14:34:58.590Z,9.40
2022-10-20T14:37:24.899Z,9.00
2022-10-20T14:39:39.469Z,9.40
2022-10-20T14:41:50.948Z,9.90
2022-10-20T14:44:05.219Z,7.40
2022-10-20T14:46:31.371Z,6.60
2022-10-20T14:48:46.110Z,6.10
2022-10-20T14:50:56.917Z,5.40
2022-10-20T14:53:31.540Z,4.70
2022-10-20T14:55:41.601Z,3.60
2022-10-20T14:57:52.014Z,4.60
2022-10-20T15:00:04.638Z,3.70
2022-10-20T15:02:20.574Z,3.80
2022-10-20T15:04:33.631Z,4.60
2022-10-20T15:06:46.727Z,4.50
2022-10-20T15:09:00.291Z,4.50
2022-10-20T15:11:26.129Z,7.80
2022-10-20T15:13:36.917Z,5.10
2022-10-20T15:15:48.171Z,7.30
2022-10-20T15:18:16.916Z,27.30
2022-10-20T15:20:43.182Z,40.00
2022-10-20T15:22:55.277Z,31.40
2022-10-20T15:25:05.764Z,25.10
2022-10-20T15:27:20.046Z,57.30
2022-10-20T15:29:31.074Z,63.50
2022-10-20T15:31:43.065Z,60.40
2022-10-20T15:33:54.911Z,54.50
2022-10-20T15:36:05.122Z,53.40
2022-10-20T15:38:15.030Z,35.60
2022-10-20T15:40:25.621Z,36.40
2022-10-20T15:42:36.192Z,69.90
2022-10-20T15:44:46.865Z,74.00
2022-10-20T15:46:57.576Z,76.40
2022-10-20T15:49:07.657Z,66.10
2022-10-20T15:51:22.839Z,64.20
2022-10-20T15:53:33.135Z,49.80
2022-10-20T15:55:45.698Z,30.90
2022-10-20T15:57:58.083Z,20.00
2022-10-20T16:00:09.572Z,15.30
2022-10-20T16:02:19.454Z,13.20
2022-10-20T16:04:31.950Z,10.20
2022-10-20T16:06:42.713Z,10.50
2022-10-20T16:08:53.606Z,7.90
2022-10-20T16:11:03.881Z,6.80
2022-10-20T16:13:16.376Z,6.40
2022-10-20T16:15:30.356Z,6.00
2022-10-20T16:17:41.137Z,6.40
2022-10-20T16:19:51.266Z,7.30
2022-10-20T16:22:01.363Z,6.10
2022-10-20T16:24:12.416Z,4.10
2022-10-20T16:26:22.975Z,3.50
2022-10-20T16:28:34.607Z,4.40
2022-10-20T16:30:44.708Z,4.00
2022-10-20T16:32:54.807Z,4.10
2022-10-20T16:35:05.085Z,4.20
2022-10-20T16:37:15.009Z,3.80
2022-10-20T16:39:25.232Z,4.20
2022-10-20T16:41:35.368Z,3.80
2022-10-20T16:43:47.001Z,3.90
2022-10-20T16:45:57.105Z,4.00
2022-10-20T16:48:07.401Z,3.50
2022-10-20T16:50:17.642Z,3.00
2022-10-20T16:52:30.189Z,3.40
2022-10-20T16:56:51.033Z,37.60
2022-10-20T16:59:02.318Z,44.10
2022-10-20T17:01:14.094Z,42.00
2022-10-20T17:03:25.178Z,47.30
2022-10-20T17:05:35.297Z,44.10
2022-10-20T17:07:45.395Z,51.80
2022-10-20T17:09:56.046Z,52.30
2022-10-20T17:12:06.429Z,62.20
2022-10-20T17:14:16.570Z,56.00
2022-10-20T17:16:28.918Z,54.40
2022-10-20T17:18:39.516Z,47.70
2022-10-20T17:20:54.401Z,56.80
2022-10-20T17:23:04.555Z,67.20
2022-10-20T17:25:15.611Z,68.40
2022-10-20T17:27:26.043Z,69.60
2022-10-20T17:29:36.179Z,97.40
2022-10-20T17:31:46.253Z,97.70
2022-10-20T17:33:56.892Z,100.10
2022-10-20T17:36:07.620Z,81.80
2022-10-20T17:38:17.644Z,66.00
2022-10-20T17:40:28.055Z,55.90
2022-10-20T17:42:39.395Z,48.40
2022-10-20T17:44:49.829Z,46.20
2022-10-20T17:47:02.230Z,40.60
2022-10-20T17:51:21.954Z,107.00
2022-10-20T17:53:32.527Z,109.90
2022-10-20T17:55:42.603Z,101.00
2022-10-20T17:57:52.890Z,90.70
2022-10-20T18:00:07.736Z,115.80
2022-10-20T18:02:20.728Z,153.40
2022-10-20T18:04:30.857Z,146.00
2022-10-20T18:06:41.543Z,139.20
2022-10-20T18:08:56.190Z,139.30
2022-10-20T18:11:09.332Z,135.30
2022-10-20T18:13:19.383Z,112.90
2022-10-20T18:15:29.588Z,113.00
2022-10-20T18:17:40.941Z,109.20
2022-10-20T18:19:51.528Z,102.30
2022-10-20T18:22:01.467Z,82.00
2022-10-20T18:24:14.855Z,94.00
2022-10-20T18:26:25.553Z,78.90
2022-10-20T18:28:36.288Z,62.30
2022-10-20T18:30:47.653Z,56.50
2022-10-20T18:32:58.864Z,54.80
2022-10-20T18:35:10.096Z,77.30
2022-10-20T18:37:20.235Z,66.80
2022-10-20T18:39:32.353Z,61.00
2022-10-20T18:41:43.582Z,68.60
2022-10-20T18:43:58.151Z,81.40
2022-10-20T18:46:10.593Z,73.50
2022-10-20T18:48:20.918Z,62.40
2022-10-20T18:50:31.144Z,56.20
2022-10-20T18:52:41.353Z,72.10
2022-10-20T18:54:51.383Z,64.10
2022-10-20T18:57:01.459Z,63.90
2022-10-20T18:59:14.416Z,55.10
2022-10-20T19:01:25.974Z,51.70
2022-10-20T19:03:36.462Z,63.20
2022-10-20T19:05:47.313Z,46.30
2022-10-20T19:07:57.376Z,54.10
2022-10-20T19:10:08.246Z,76.30
2022-10-20T19:12:18.421Z,75.80
2022-10-20T19:14:28.378Z,66.70
2022-10-20T19:16:39.489Z,85.30
2022-10-20T19:18:51.533Z,94.60
2022-10-20T19:21:03.037Z,91.50
2022-10-20T19:23:13.082Z,90.90
2022-10-20T19:25:23.265Z,102.10
2022-10-20T19:27:34.536Z,101.50
2022-10-20T19:29:45.154Z,102.40
2022-10-20T19:31:57.046Z,94.00
2022-10-20T19:34:09.807Z,106.50
2022-10-20T19:36:19.908Z,106.50
2022-10-20T19:38:30.082Z,95.60
2022-10-20T19:40:40.409Z,97.60
2022-10-20T19:42:54.940Z,103.20
2022-10-20T19:45:04.929Z,94.20
2022-10-20T19:47:15.485Z,84.80
2022-10-20T19:49:26.817Z,85.20
2022-10-20T19:51:36.863Z,75.10
2022-10-20T19:53:47.206Z,81.10
2022-10-20T19:55:57.506Z,88.80
2022-10-20T20:00:18.556Z,76.80
2022-10-20T20:02:29.292Z,72.80
2022-10-20T20:04:39.397Z,64.70
2022-10-20T20:06:49.352Z,64.00
2022-10-20T20:09:02.772Z,64.50
2022-10-20T20:11:14.155Z,61.40
2022-10-20T20:13:24.732Z,52.50
2022-10-20T20:15:34.986Z,62.10
2022-10-20T20:17:45.435Z,52.40
2022-10-20T20:19:55.570Z,59.60
2022-10-20T20:22:05.501Z,39.50
2022-10-20T20:24:16.562Z,48.20
2022-10-20T20:26:27.331Z,56.80
2022-10-20T20:28:37.882Z,56.60
2022-10-20T20:30:59.942Z,47.00
2022-10-20T20:33:13.705Z,43.40
2022-10-20T20:35:23.804Z,36.50
2022-10-20T20:37:33.703Z,39.20
2022-10-20T20:39:44.047Z,43.50
2022-10-20T20:41:54.415Z,53.20
2022-10-20T20:44:08.278Z,51.90
2022-10-20T20:46:20.153Z,56.90
2022-10-20T20:48:30.454Z,51.60
2022-10-20T20:50:40.715Z,44.60
2022-10-20T20:52:52.836Z,50.40
2022-10-20T20:55:02.801Z,52.00
2022-10-20T20:57:13.207Z,46.10
2022-10-20T20:59:23.383Z,39.90
2022-10-20T21:01:34.389Z,36.90
2022-10-20T21:03:44.962Z,31.00
2022-10-20T21:05:55.300Z,18.90
2022-10-20T21:08:05.856Z,14.30
2022-10-20T21:10:16.216Z,27.50
2022-10-20T21:12:29.642Z,24.10
2022-10-20T21:14:42.051Z,26.20
2022-10-20T21:16:53.128Z,22.90
2022-10-20T21:19:05.267Z,28.60
2022-10-20T21:21:17.673Z,42.80
2022-10-20T21:23:27.722Z,30.70
2022-10-20T21:25:37.828Z,29.40
2022-10-20T21:27:47.914Z,34.40
2022-10-20T21:29:58.028Z,39.30
2022-10-20T21:32:08.710Z,31.30
2022-10-20T21:34:18.716Z,32.30
2022-10-20T21:36:30.611Z,32.60
2022-10-20T21:38:42.264Z,37.00
2022-10-20T21:40:52.441Z,34.70
2022-10-20T21:43:03.185Z,25.30
2022-10-20T21:45:16.777Z,27.80
2022-10-20T21:47:29.221Z,34.30
2022-10-20T21:49:39.731Z,31.80
2022-10-20T21:51:52.996Z,32.30
2022-10-20T21:54:05.231Z,39.70
2022-10-20T21:56:15.543Z,47.80
2022-10-20T21:58:25.672Z,43.20
2022-10-20T22:00:35.737Z,32.10
2022-10-20T22:02:46.101Z,44.90
2022-10-20T22:04:56.283Z,44.90
2022-10-20T22:07:06.523Z,39.80
2022-10-20T22:09:18.167Z,38.20
2022-10-20T22:11:30.132Z,38.00
2022-10-20T22:13:40.270Z,30.50
2022-10-20T22:15:50.681Z,39.30
2022-10-20T22:18:00.791Z,42.40
2022-10-20T22:20:12.864Z,36.20
2022-10-20T22:22:23.788Z,37.80
2022-10-20T22:24:36.092Z,33.60
2022-10-20T22:26:46.801Z,31.60
2022-10-20T22:28:57.886Z,24.80
2022-10-20T22:31:08.591Z,20.10
2022-10-20T22:33:19.404Z,24.60
2022-10-20T22:35:30.340Z,21.10
2022-10-20T22:37:40.373Z,15.50
2022-10-20T22:39:50.329Z,23.60
2022-10-20T22:42:00.398Z,25.40
2022-10-20T22:44:11.326Z,31.30
2022-10-20T22:46:21.587Z,25.90
2022-10-20T22:48:31.762Z,22.00
2022-10-20T22:50:41.954Z,25.50
2022-10-20T22:52:54.160Z,37.60
2022-10-20T22:55:04.565Z,37.60
2022-10-20T22:57:14.663Z,30.80
2022-10-20T22:59:24.556Z,42.80
2022-10-20T23:01:34.799Z,43.00
2022-10-20T23:03:45.145Z,36.00
2022-10-20T23:05:55.223Z,28.30
2022-10-20T23:08:05.580Z,36.50
2022-10-20T23:10:15.998Z,42.40
2022-10-20T23:12:26.290Z,34.20
2022-10-20T23:14:36.385Z,26.70
2022-10-20T23:16:46.492Z,39.80
2022-10-20T23:18:56.639Z,40.20
2022-10-20T23:21:07.152Z,42.20
2022-10-20T23:23:17.164Z,37.50
2022-10-20T23:25:27.141Z,32.00
2022-10-20T23:27:39.784Z,40.40
2022-10-20T23:29:50.212Z,30.70
2022-10-20T23:32:00.332Z,38.40
2022-10-20T23:34:10.850Z,37.10
2022-10-20T23:36:21.625Z,40.80
2022-10-20T23:38:32.785Z,32.80
2022-10-20T23:40:42.921Z,33.10
2022-10-20T23:42:53.087Z,29.30
2022-10-20T23:45:03.383Z,26.70
2022-10-20T23:47:13.386Z,28.90
2022-10-20T23:49:23.474Z,20.30
2022-10-20T23:51:33.572Z,22.90
2022-10-20T23:53:44.256Z,22.60
2022-10-20T23:55:54.143Z,19.80
2022-10-20T23:58:04.300Z,31.20
